WEN968 CYQR-CYYC
Flight info
| Callsign | WEN968 |
|---|---|
| Flight time | 1h 26m |
| Altitude | 20000 |
| Route | ODGOV SHAWI Q874 ILADA BIRKO6 |
| Aircraft | DH8D/M-SDE3/C |
Departure
| Time | 2026-04-19 03:00 |
|---|---|
| Airport | Regina International Airport (CYQR) |
Arrival
| Time | 2026-04-19 04:27 |
|---|---|
| Airport | Calgary International Airport (CYYC) |
| Time | Latitude | Longitude | Altitude | Speed | Heading |
|---|---|---|---|---|---|
| 2026-04-19 02:42 | 50.43309 | -104.65661 | 1893 ft | 0 kts | 48° |
| 2026-04-19 02:53 | 50.43309 | -104.65660 | 1893 ft | 0 kts | 48° |
| 2026-04-19 02:53 | 50.43306 | -104.65667 | 1893 ft | 2 kts | 60° |
| 2026-04-19 02:53 | 50.43298 | -104.65685 | 1893 ft | 2 kts | 47° |
| 2026-04-19 02:54 | 50.43287 | -104.65703 | 1893 ft | 2 kts | 48° |
| 2026-04-19 02:54 | 50.43277 | -104.65720 | 1893 ft | 2 kts | 47° |
| 2026-04-19 02:54 | 50.43267 | -104.65737 | 1893 ft | 2 kts | 48° |
| 2026-04-19 02:54 | 50.43257 | -104.65755 | 1893 ft | 2 kts | 47° |
| 2026-04-19 02:55 | 50.43254 | -104.65762 | 1893 ft | 0 kts | 48° |
| 2026-04-19 02:57 | 50.43247 | -104.65736 | 1893 ft | 10 kts | 140° |
| 2026-04-19 02:57 | 50.43176 | -104.65657 | 1893 ft | 13 kts | 150° |
| 2026-04-19 02:57 | 50.43086 | -104.65562 | 1893 ft | 16 kts | 141° |
| 2026-04-19 02:57 | 50.43001 | -104.65437 | 1893 ft | 17 kts | 136° |
| 2026-04-19 02:58 | 50.42910 | -104.65304 | 1893 ft | 17 kts | 136° |
| 2026-04-19 02:58 | 50.42825 | -104.65179 | 1893 ft | 15 kts | 138° |
| 2026-04-19 02:58 | 50.42743 | -104.65065 | 1893 ft | 16 kts | 137° |
| 2026-04-19 02:58 | 50.42661 | -104.64954 | 1893 ft | 14 kts | 140° |
| 2026-04-19 02:59 | 50.42565 | -104.64889 | 1893 ft | 17 kts | 178° |
| 2026-04-19 02:59 | 50.42451 | -104.64973 | 1894 ft | 18 kts | 257° |
| 2026-04-19 02:59 | 50.42550 | -104.65165 | 1896 ft | 42 kts | 320° |
| 2026-04-19 02:59 | 50.42966 | -104.65748 | 1894 ft | 115 kts | 318° |
| 2026-04-19 03:00 | 50.43703 | -104.66769 | 1946 ft | 154 kts | 320° |
| 2026-04-19 03:00 | 50.44546 | -104.67861 | 2361 ft | 163 kts | 321° |
| 2026-04-19 03:00 | 50.45433 | -104.69003 | 2864 ft | 170 kts | 320° |
| 2026-04-19 03:00 | 50.46314 | -104.70144 | 3580 ft | 163 kts | 329° |
| 2026-04-19 03:01 | 50.47220 | -104.71201 | 4195 ft | 163 kts | 319° |
| 2026-04-19 03:01 | 50.47929 | -104.72504 | 4912 ft | 157 kts | 304° |
| 2026-04-19 03:01 | 50.48298 | -104.74066 | 5571 ft | 151 kts | 292° |
| 2026-04-19 03:01 | 50.48572 | -104.75608 | 6199 ft | 144 kts | 293° |
| 2026-04-19 03:02 | 50.48845 | -104.77119 | 6746 ft | 144 kts | 293° |
| 2026-04-19 03:02 | 50.49130 | -104.78683 | 7133 ft | 153 kts | 293° |
| 2026-04-19 03:02 | 50.49427 | -104.80344 | 7498 ft | 165 kts | 292° |
| 2026-04-19 03:02 | 50.49744 | -104.82143 | 7925 ft | 173 kts | 292° |
| 2026-04-19 03:03 | 50.50058 | -104.83979 | 8425 ft | 174 kts | 292° |
| 2026-04-19 03:03 | 50.50369 | -104.85831 | 8904 ft | 173 kts | 292° |
| 2026-04-19 03:03 | 50.50677 | -104.87649 | 9378 ft | 173 kts | 293° |
| 2026-04-19 03:03 | 50.50984 | -104.89464 | 9843 ft | 172 kts | 293° |
| 2026-04-19 03:04 | 50.51291 | -104.91275 | 10318 ft | 171 kts | 294° |
| 2026-04-19 03:04 | 50.51598 | -104.93093 | 10794 ft | 170 kts | 294° |
| 2026-04-19 03:04 | 50.51896 | -104.94859 | 11252 ft | 169 kts | 294° |
| 2026-04-19 03:04 | 50.52192 | -104.96634 | 11715 ft | 167 kts | 295° |
| 2026-04-19 03:05 | 50.52491 | -104.98397 | 12175 ft | 165 kts | 295° |
| 2026-04-19 03:05 | 50.52785 | -105.00126 | 12628 ft | 163 kts | 296° |
| 2026-04-19 03:05 | 50.53075 | -105.01836 | 13084 ft | 161 kts | 296° |
| 2026-04-19 03:05 | 50.53360 | -105.03519 | 13531 ft | 159 kts | 297° |
| 2026-04-19 03:06 | 50.53643 | -105.05192 | 13989 ft | 157 kts | 297° |
| 2026-04-19 03:06 | 50.53916 | -105.06815 | 14439 ft | 153 kts | 298° |
| 2026-04-19 03:06 | 50.54181 | -105.08393 | 14877 ft | 149 kts | 298° |
| 2026-04-19 03:06 | 50.54444 | -105.09951 | 15267 ft | 146 kts | 298° |
| 2026-04-19 03:07 | 50.54714 | -105.11522 | 15553 ft | 148 kts | 297° |
| 2026-04-19 03:07 | 50.54984 | -105.13104 | 15828 ft | 151 kts | 298° |
| 2026-04-19 03:07 | 50.55255 | -105.14697 | 16099 ft | 153 kts | 297° |
| 2026-04-19 03:07 | 50.55530 | -105.16325 | 16362 ft | 154 kts | 297° |
| 2026-04-19 03:08 | 50.55808 | -105.17979 | 16618 ft | 156 kts | 297° |
| 2026-04-19 03:08 | 50.56088 | -105.19651 | 16875 ft | 157 kts | 297° |
| 2026-04-19 03:08 | 50.56367 | -105.21321 | 17126 ft | 158 kts | 297° |
| 2026-04-19 03:08 | 50.56644 | -105.22984 | 17372 ft | 159 kts | 297° |
| 2026-04-19 03:09 | 50.56929 | -105.24696 | 17624 ft | 159 kts | 297° |
| 2026-04-19 03:09 | 50.57209 | -105.26382 | 17874 ft | 159 kts | 297° |
| 2026-04-19 03:09 | 50.57491 | -105.28080 | 18131 ft | 159 kts | 297° |
| 2026-04-19 03:09 | 50.57768 | -105.29750 | 18382 ft | 158 kts | 297° |
| 2026-04-19 03:10 | 50.58046 | -105.31430 | 18634 ft | 156 kts | 297° |
| 2026-04-19 03:10 | 50.58317 | -105.33072 | 18875 ft | 154 kts | 298° |
| 2026-04-19 03:10 | 50.58586 | -105.34700 | 19110 ft | 152 kts | 297° |
| 2026-04-19 03:10 | 50.58849 | -105.36289 | 19358 ft | 148 kts | 297° |
| 2026-04-19 03:11 | 50.59105 | -105.37839 | 19598 ft | 143 kts | 298° |
| 2026-04-19 03:11 | 50.59352 | -105.39337 | 19808 ft | 139 kts | 298° |
| 2026-04-19 03:11 | 50.59600 | -105.40812 | 19941 ft | 138 kts | 299° |
| 2026-04-19 03:11 | 50.59845 | -105.42266 | 20046 ft | 139 kts | 299° |
| 2026-04-19 03:12 | 50.60097 | -105.43767 | 20108 ft | 142 kts | 299° |
| 2026-04-19 03:12 | 50.60356 | -105.45333 | 20133 ft | 149 kts | 298° |
| 2026-04-19 03:12 | 50.60621 | -105.46943 | 20151 ft | 158 kts | 297° |
| 2026-04-19 03:12 | 50.60904 | -105.48679 | 20160 ft | 168 kts | 296° |
| 2026-04-19 03:13 | 50.61200 | -105.50514 | 20164 ft | 178 kts | 296° |
| 2026-04-19 03:13 | 50.61513 | -105.52460 | 20161 ft | 189 kts | 295° |
| 2026-04-19 03:13 | 50.61842 | -105.54527 | 20160 ft | 200 kts | 294° |
| 2026-04-19 03:13 | 50.62190 | -105.56709 | 20158 ft | 210 kts | 294° |
| 2026-04-19 03:14 | 50.62557 | -105.59029 | 20157 ft | 221 kts | 294° |
| 2026-04-19 03:14 | 50.62934 | -105.61414 | 20151 ft | 231 kts | 293° |
| 2026-04-19 03:14 | 50.63329 | -105.63913 | 20155 ft | 240 kts | 292° |
| 2026-04-19 03:14 | 50.63742 | -105.66534 | 20154 ft | 249 kts | 292° |
| 2026-04-19 03:15 | 50.64166 | -105.69228 | 20145 ft | 257 kts | 292° |
| 2026-04-19 03:15 | 50.64605 | -105.72025 | 20144 ft | 263 kts | 291° |
| 2026-04-19 03:15 | 50.65049 | -105.74856 | 20147 ft | 269 kts | 291° |
| 2026-04-19 03:15 | 50.65500 | -105.77738 | 20141 ft | 274 kts | 291° |
| 2026-04-19 03:16 | 50.65967 | -105.80724 | 20147 ft | 278 kts | 291° |
| 2026-04-19 03:16 | 50.66433 | -105.83709 | 20143 ft | 281 kts | 291° |
| 2026-04-19 03:16 | 50.66900 | -105.86703 | 20144 ft | 284 kts | 291° |
| 2026-04-19 03:16 | 50.67373 | -105.89738 | 20138 ft | 287 kts | 291° |
| 2026-04-19 03:17 | 50.67854 | -105.92828 | 20141 ft | 288 kts | 291° |
| 2026-04-19 03:17 | 50.68328 | -105.95881 | 20137 ft | 290 kts | 291° |
| 2026-04-19 03:17 | 50.68809 | -105.98983 | 20136 ft | 291 kts | 291° |
| 2026-04-19 03:17 | 50.69289 | -106.02078 | 20137 ft | 292 kts | 291° |
| 2026-04-19 03:18 | 50.69774 | -106.05211 | 20133 ft | 293 kts | 290° |
| 2026-04-19 03:18 | 50.70265 | -106.08384 | 20126 ft | 294 kts | 290° |
| 2026-04-19 03:18 | 50.70749 | -106.11523 | 20127 ft | 294 kts | 290° |
| 2026-04-19 03:18 | 50.71230 | -106.14648 | 20139 ft | 295 kts | 290° |
| 2026-04-19 03:19 | 50.71715 | -106.17799 | 20140 ft | 295 kts | 290° |
| 2026-04-19 03:19 | 50.72203 | -106.20978 | 20131 ft | 295 kts | 290° |
| 2026-04-19 03:19 | 50.72685 | -106.24130 | 20129 ft | 296 kts | 290° |
| 2026-04-19 03:19 | 50.73173 | -106.27318 | 20121 ft | 296 kts | 290° |
| 2026-04-19 03:20 | 50.73664 | -106.30534 | 20126 ft | 296 kts | 290° |
| 2026-04-19 03:20 | 50.74147 | -106.33682 | 20133 ft | 296 kts | 290° |
| 2026-04-19 03:20 | 50.74629 | -106.36862 | 20132 ft | 296 kts | 290° |
| 2026-04-19 03:20 | 50.75109 | -106.40022 | 20125 ft | 296 kts | 290° |
| 2026-04-19 03:21 | 50.75594 | -106.43231 | 20133 ft | 295 kts | 290° |
| 2026-04-19 03:21 | 50.76070 | -106.46394 | 20133 ft | 295 kts | 290° |
| 2026-04-19 03:21 | 50.76541 | -106.49515 | 20132 ft | 295 kts | 290° |
| 2026-04-19 03:21 | 50.77016 | -106.52675 | 20127 ft | 296 kts | 290° |
| 2026-04-19 03:22 | 50.77499 | -106.55893 | 20129 ft | 296 kts | 290° |
| 2026-04-19 03:22 | 50.77979 | -106.59089 | 20129 ft | 296 kts | 290° |
| 2026-04-19 03:22 | 50.78451 | -106.62251 | 20129 ft | 297 kts | 290° |
| 2026-04-19 03:22 | 50.78930 | -106.65446 | 20137 ft | 297 kts | 289° |
| 2026-04-19 03:23 | 50.79408 | -106.68658 | 20142 ft | 298 kts | 289° |
| 2026-04-19 03:23 | 50.79879 | -106.71822 | 20129 ft | 298 kts | 289° |
| 2026-04-19 03:23 | 50.80357 | -106.75038 | 20131 ft | 299 kts | 289° |
| 2026-04-19 03:23 | 50.80831 | -106.78235 | 20126 ft | 299 kts | 289° |
| 2026-04-19 03:24 | 50.81308 | -106.81476 | 20122 ft | 298 kts | 289° |
| 2026-04-19 03:24 | 50.81780 | -106.84673 | 20133 ft | 299 kts | 289° |
| 2026-04-19 03:24 | 50.82257 | -106.87906 | 20138 ft | 299 kts | 289° |
| 2026-04-19 03:24 | 50.82728 | -106.91104 | 20123 ft | 300 kts | 289° |
| 2026-04-19 03:25 | 50.83205 | -106.94363 | 20138 ft | 300 kts | 289° |
| 2026-04-19 03:25 | 50.83678 | -106.97598 | 20125 ft | 300 kts | 289° |
| 2026-04-19 03:25 | 50.84151 | -107.00835 | 20124 ft | 300 kts | 289° |
| 2026-04-19 03:25 | 50.84615 | -107.04022 | 20134 ft | 301 kts | 288° |
| 2026-04-19 03:26 | 50.85095 | -107.07319 | 20123 ft | 301 kts | 289° |
| 2026-04-19 03:26 | 50.85561 | -107.10540 | 20131 ft | 301 kts | 289° |
| 2026-04-19 03:26 | 50.86028 | -107.13775 | 20134 ft | 301 kts | 289° |
| 2026-04-19 03:26 | 50.86496 | -107.17011 | 20132 ft | 301 kts | 289° |
| 2026-04-19 03:27 | 50.86971 | -107.20297 | 20141 ft | 301 kts | 288° |
| 2026-04-19 03:27 | 50.87433 | -107.23519 | 20139 ft | 301 kts | 288° |
| 2026-04-19 03:27 | 50.87900 | -107.26764 | 20133 ft | 301 kts | 288° |
| 2026-04-19 03:27 | 50.88361 | -107.29990 | 20124 ft | 301 kts | 288° |
| 2026-04-19 03:28 | 50.88830 | -107.33270 | 20128 ft | 301 kts | 288° |
| 2026-04-19 03:28 | 50.89295 | -107.36530 | 20130 ft | 301 kts | 288° |
| 2026-04-19 03:28 | 50.89749 | -107.39722 | 20126 ft | 301 kts | 288° |
| 2026-04-19 03:28 | 50.90209 | -107.42957 | 20125 ft | 302 kts | 288° |
| 2026-04-19 03:29 | 50.90680 | -107.46281 | 20120 ft | 302 kts | 288° |
| 2026-04-19 03:29 | 50.91138 | -107.49516 | 20128 ft | 302 kts | 288° |
| 2026-04-19 03:29 | 50.91598 | -107.52778 | 20126 ft | 303 kts | 288° |
| 2026-04-19 03:29 | 50.92059 | -107.56049 | 20121 ft | 303 kts | 288° |
| 2026-04-19 03:30 | 50.92521 | -107.59339 | 20128 ft | 303 kts | 288° |
| 2026-04-19 03:30 | 50.92977 | -107.62588 | 20116 ft | 303 kts | 288° |
| 2026-04-19 03:30 | 50.93435 | -107.65864 | 20111 ft | 303 kts | 287° |
| 2026-04-19 03:30 | 50.93894 | -107.69142 | 20113 ft | 303 kts | 287° |
| 2026-04-19 03:31 | 50.94358 | -107.72483 | 20102 ft | 303 kts | 287° |
| 2026-04-19 03:31 | 50.94813 | -107.75758 | 20115 ft | 303 kts | 287° |
| 2026-04-19 03:31 | 50.95263 | -107.79004 | 20121 ft | 304 kts | 287° |
| 2026-04-19 03:31 | 50.95714 | -107.82262 | 20119 ft | 304 kts | 287° |
| 2026-04-19 03:32 | 50.96176 | -107.85607 | 20114 ft | 304 kts | 287° |
| 2026-04-19 03:32 | 50.96628 | -107.88889 | 20118 ft | 304 kts | 287° |
| 2026-04-19 03:32 | 50.97080 | -107.92178 | 20117 ft | 304 kts | 287° |
| 2026-04-19 03:32 | 50.97529 | -107.95461 | 20115 ft | 304 kts | 287° |
| 2026-04-19 03:33 | 50.97985 | -107.98791 | 20122 ft | 304 kts | 287° |
| 2026-04-19 03:33 | 50.98429 | -108.02044 | 20120 ft | 304 kts | 287° |
| 2026-04-19 03:33 | 50.98882 | -108.05366 | 20126 ft | 305 kts | 287° |
| 2026-04-19 03:33 | 50.99329 | -108.08652 | 20130 ft | 305 kts | 287° |
| 2026-04-19 03:34 | 50.99783 | -108.11999 | 20114 ft | 305 kts | 287° |
| 2026-04-19 03:34 | 51.00230 | -108.15311 | 20116 ft | 305 kts | 287° |
| 2026-04-19 03:34 | 51.00677 | -108.18626 | 20120 ft | 305 kts | 287° |
| 2026-04-19 03:34 | 51.01120 | -108.21917 | 20129 ft | 306 kts | 287° |
| 2026-04-19 03:35 | 51.01562 | -108.25203 | 20121 ft | 306 kts | 287° |
| 2026-04-19 03:35 | 51.02007 | -108.28525 | 20129 ft | 306 kts | 287° |
| 2026-04-19 03:35 | 51.02449 | -108.31828 | 20129 ft | 306 kts | 287° |
| 2026-04-19 03:35 | 51.02888 | -108.35118 | 20123 ft | 307 kts | 287° |
| 2026-04-19 03:36 | 51.03332 | -108.38461 | 20129 ft | 306 kts | 286° |
| 2026-04-19 03:36 | 51.03772 | -108.41767 | 20124 ft | 306 kts | 286° |
| 2026-04-19 03:36 | 51.04208 | -108.45065 | 20124 ft | 306 kts | 287° |
| 2026-04-19 03:36 | 51.04636 | -108.48305 | 20122 ft | 305 kts | 287° |
| 2026-04-19 03:37 | 51.05077 | -108.51651 | 20124 ft | 305 kts | 287° |
| 2026-04-19 03:37 | 51.05514 | -108.54972 | 20125 ft | 305 kts | 286° |
| 2026-04-19 03:37 | 51.05952 | -108.58308 | 20128 ft | 305 kts | 286° |
| 2026-04-19 03:37 | 51.06387 | -108.61633 | 20137 ft | 306 kts | 286° |
| 2026-04-19 03:38 | 51.06821 | -108.64947 | 20124 ft | 305 kts | 286° |
| 2026-04-19 03:38 | 51.07256 | -108.68286 | 20131 ft | 306 kts | 285° |
| 2026-04-19 03:38 | 51.07692 | -108.71635 | 20116 ft | 307 kts | 285° |
| 2026-04-19 03:38 | 51.08125 | -108.74971 | 20127 ft | 308 kts | 285° |
| 2026-04-19 03:39 | 51.08559 | -108.78325 | 20122 ft | 308 kts | 285° |
| 2026-04-19 03:39 | 51.08992 | -108.81680 | 20126 ft | 308 kts | 285° |
| 2026-04-19 03:39 | 51.09423 | -108.85022 | 20125 ft | 308 kts | 285° |
| 2026-04-19 03:39 | 51.09851 | -108.88358 | 20124 ft | 308 kts | 285° |
| 2026-04-19 03:40 | 51.10285 | -108.91745 | 20129 ft | 308 kts | 285° |
| 2026-04-19 03:40 | 51.10713 | -108.95094 | 20121 ft | 308 kts | 285° |
| 2026-04-19 03:40 | 51.11138 | -108.98425 | 20116 ft | 309 kts | 285° |
| 2026-04-19 03:40 | 51.11556 | -109.01706 | 20121 ft | 309 kts | 285° |
| 2026-04-19 03:41 | 51.11987 | -109.05112 | 20116 ft | 309 kts | 285° |
| 2026-04-19 03:41 | 51.12412 | -109.08456 | 20117 ft | 309 kts | 285° |
| 2026-04-19 03:41 | 51.12836 | -109.11816 | 20122 ft | 309 kts | 285° |
| 2026-04-19 03:41 | 51.13261 | -109.15191 | 20114 ft | 310 kts | 285° |
| 2026-04-19 03:42 | 51.13692 | -109.18624 | 20110 ft | 310 kts | 285° |
| 2026-04-19 03:42 | 51.14113 | -109.21976 | 20117 ft | 310 kts | 285° |
| 2026-04-19 03:42 | 51.14536 | -109.25362 | 20120 ft | 311 kts | 285° |
| 2026-04-19 03:42 | 51.14958 | -109.28743 | 20107 ft | 310 kts | 285° |
| 2026-04-19 03:43 | 51.15381 | -109.32147 | 20109 ft | 310 kts | 285° |
| 2026-04-19 03:43 | 51.15801 | -109.35526 | 20113 ft | 311 kts | 285° |
| 2026-04-19 03:43 | 51.16218 | -109.38895 | 20110 ft | 311 kts | 285° |
| 2026-04-19 03:43 | 51.16642 | -109.42319 | 20111 ft | 311 kts | 285° |
| 2026-04-19 03:44 | 51.17063 | -109.45737 | 20109 ft | 310 kts | 285° |
| 2026-04-19 03:44 | 51.17475 | -109.49093 | 20112 ft | 311 kts | 285° |
| 2026-04-19 03:44 | 51.17892 | -109.52492 | 20110 ft | 311 kts | 285° |
| 2026-04-19 03:44 | 51.18307 | -109.55884 | 20112 ft | 311 kts | 285° |
| 2026-04-19 03:45 | 51.18730 | -109.59358 | 20109 ft | 310 kts | 285° |
| 2026-04-19 03:45 | 51.19135 | -109.62694 | 20113 ft | 310 kts | 285° |
| 2026-04-19 03:45 | 51.19546 | -109.66080 | 20111 ft | 311 kts | 284° |
| 2026-04-19 03:45 | 51.19965 | -109.69543 | 20110 ft | 311 kts | 284° |
| 2026-04-19 03:46 | 51.20375 | -109.72940 | 20112 ft | 312 kts | 284° |
| 2026-04-19 03:46 | 51.20781 | -109.76312 | 20113 ft | 312 kts | 284° |
| 2026-04-19 03:46 | 51.21193 | -109.79742 | 20111 ft | 312 kts | 284° |
| 2026-04-19 03:46 | 51.21600 | -109.83148 | 20107 ft | 312 kts | 284° |
| 2026-04-19 03:47 | 51.22015 | -109.86620 | 20109 ft | 311 kts | 284° |
| 2026-04-19 03:47 | 51.22418 | -109.90000 | 20108 ft | 312 kts | 284° |
| 2026-04-19 03:47 | 51.22821 | -109.93385 | 20103 ft | 312 kts | 284° |
| 2026-04-19 03:47 | 51.23229 | -109.96836 | 20103 ft | 312 kts | 284° |
| 2026-04-19 03:48 | 51.23637 | -110.00290 | 20106 ft | 312 kts | 284° |
| 2026-04-19 03:48 | 51.23982 | -110.03724 | 20103 ft | 313 kts | 281° |
| 2026-04-19 03:48 | 51.24271 | -110.07147 | 20102 ft | 313 kts | 281° |
| 2026-04-19 03:48 | 51.24562 | -110.10608 | 20103 ft | 313 kts | 281° |
| 2026-04-19 03:49 | 51.24855 | -110.14074 | 20096 ft | 313 kts | 281° |
| 2026-04-19 03:49 | 51.25145 | -110.17501 | 20104 ft | 313 kts | 281° |
| 2026-04-19 03:49 | 51.25440 | -110.20964 | 20098 ft | 313 kts | 281° |
| 2026-04-19 03:49 | 51.25727 | -110.24343 | 20093 ft | 314 kts | 281° |
| 2026-04-19 03:50 | 51.26027 | -110.27876 | 20094 ft | 313 kts | 281° |
| 2026-04-19 03:50 | 51.26317 | -110.31293 | 20096 ft | 313 kts | 281° |
| 2026-04-19 03:50 | 51.26612 | -110.34780 | 20097 ft | 314 kts | 281° |
| 2026-04-19 03:50 | 51.26902 | -110.38214 | 20099 ft | 314 kts | 281° |
| 2026-04-19 03:51 | 51.27198 | -110.41727 | 20085 ft | 313 kts | 281° |
| 2026-04-19 03:51 | 51.27486 | -110.45153 | 20093 ft | 314 kts | 281° |
| 2026-04-19 03:51 | 51.27776 | -110.48614 | 20090 ft | 314 kts | 281° |
| 2026-04-19 03:51 | 51.28066 | -110.52095 | 20091 ft | 314 kts | 281° |
| 2026-04-19 03:52 | 51.28354 | -110.55576 | 20084 ft | 313 kts | 281° |
| 2026-04-19 03:52 | 51.28641 | -110.59042 | 20086 ft | 313 kts | 281° |
| 2026-04-19 03:52 | 51.28927 | -110.62501 | 20082 ft | 314 kts | 281° |
| 2026-04-19 03:52 | 51.29213 | -110.65981 | 20081 ft | 314 kts | 281° |
| 2026-04-19 03:53 | 51.29497 | -110.69444 | 20084 ft | 314 kts | 281° |
| 2026-04-19 03:53 | 51.29783 | -110.72945 | 20086 ft | 314 kts | 281° |
| 2026-04-19 03:53 | 51.30061 | -110.76360 | 20081 ft | 315 kts | 280° |
| 2026-04-19 03:53 | 51.30344 | -110.79849 | 20078 ft | 315 kts | 280° |
| 2026-04-19 03:54 | 51.30626 | -110.83343 | 20077 ft | 315 kts | 280° |
| 2026-04-19 03:54 | 51.30906 | -110.86820 | 20074 ft | 315 kts | 280° |
| 2026-04-19 03:54 | 51.31184 | -110.90295 | 20073 ft | 315 kts | 280° |
| 2026-04-19 03:54 | 51.31462 | -110.93783 | 20070 ft | 315 kts | 280° |
| 2026-04-19 03:55 | 51.31739 | -110.97265 | 20070 ft | 315 kts | 280° |
| 2026-04-19 03:55 | 51.32014 | -111.00743 | 20073 ft | 315 kts | 280° |
| 2026-04-19 03:55 | 51.32290 | -111.04231 | 20075 ft | 316 kts | 280° |
| 2026-04-19 03:55 | 51.32563 | -111.07719 | 20069 ft | 315 kts | 280° |
| 2026-04-19 03:56 | 51.32838 | -111.11234 | 20073 ft | 315 kts | 280° |
| 2026-04-19 03:56 | 51.33107 | -111.14687 | 20076 ft | 315 kts | 280° |
| 2026-04-19 03:56 | 51.33378 | -111.18168 | 20074 ft | 316 kts | 281° |
| 2026-04-19 03:56 | 51.33652 | -111.21712 | 20078 ft | 315 kts | 281° |
| 2026-04-19 03:57 | 51.33918 | -111.25172 | 20079 ft | 315 kts | 281° |
| 2026-04-19 03:57 | 51.34185 | -111.28650 | 20081 ft | 316 kts | 280° |
| 2026-04-19 03:57 | 51.34455 | -111.32172 | 20080 ft | 316 kts | 281° |
| 2026-04-19 03:57 | 51.34719 | -111.35649 | 20080 ft | 316 kts | 280° |
| 2026-04-19 03:58 | 51.34989 | -111.39206 | 20074 ft | 316 kts | 280° |
| 2026-04-19 03:58 | 51.35250 | -111.42667 | 20076 ft | 316 kts | 280° |
| 2026-04-19 03:58 | 51.35515 | -111.46182 | 20081 ft | 316 kts | 280° |
| 2026-04-19 03:58 | 51.35774 | -111.49651 | 20079 ft | 316 kts | 280° |
| 2026-04-19 03:59 | 51.36037 | -111.53165 | 20075 ft | 316 kts | 280° |
| 2026-04-19 03:59 | 51.36295 | -111.56638 | 20077 ft | 316 kts | 281° |
| 2026-04-19 03:59 | 51.36552 | -111.60120 | 20074 ft | 316 kts | 281° |
| 2026-04-19 03:59 | 51.36816 | -111.63693 | 20070 ft | 316 kts | 280° |
| 2026-04-19 04:00 | 51.37071 | -111.67171 | 20075 ft | 316 kts | 279° |
| 2026-04-19 04:00 | 51.37328 | -111.70686 | 20073 ft | 316 kts | 279° |
| 2026-04-19 04:00 | 51.37581 | -111.74176 | 20075 ft | 317 kts | 279° |
| 2026-04-19 04:00 | 51.37837 | -111.77705 | 20074 ft | 317 kts | 279° |
| 2026-04-19 04:01 | 51.38090 | -111.81222 | 20068 ft | 317 kts | 279° |
| 2026-04-19 04:01 | 51.38592 | -111.88215 | 20073 ft | 318 kts | 279° |
| 2026-04-19 04:01 | 51.38845 | -111.91772 | 20069 ft | 318 kts | 280° |
| 2026-04-19 04:02 | 51.39093 | -111.95278 | 20071 ft | 318 kts | 279° |
| 2026-04-19 04:02 | 51.39343 | -111.98814 | 20067 ft | 318 kts | 279° |
| 2026-04-19 04:02 | 51.39589 | -112.02319 | 20066 ft | 318 kts | 279° |
| 2026-04-19 04:02 | 51.39837 | -112.05864 | 20069 ft | 318 kts | 279° |
| 2026-04-19 04:03 | 51.40085 | -112.09416 | 20067 ft | 318 kts | 279° |
| 2026-04-19 04:03 | 51.40327 | -112.12905 | 20066 ft | 318 kts | 279° |
| 2026-04-19 04:03 | 51.40569 | -112.16420 | 20065 ft | 318 kts | 280° |
| 2026-04-19 04:03 | 51.40812 | -112.19944 | 20065 ft | 317 kts | 279° |
| 2026-04-19 04:04 | 51.41052 | -112.23462 | 20059 ft | 317 kts | 279° |
| 2026-04-19 04:04 | 51.41293 | -112.26991 | 20060 ft | 317 kts | 279° |
| 2026-04-19 04:04 | 51.41531 | -112.30516 | 20059 ft | 317 kts | 280° |
| 2026-04-19 04:04 | 51.41771 | -112.34064 | 20060 ft | 317 kts | 279° |
| 2026-04-19 04:05 | 51.42009 | -112.37608 | 20054 ft | 317 kts | 279° |
| 2026-04-19 04:05 | 51.42242 | -112.41090 | 20059 ft | 317 kts | 280° |
| 2026-04-19 04:05 | 51.42475 | -112.44579 | 20053 ft | 318 kts | 279° |
| 2026-04-19 04:05 | 51.42712 | -112.48166 | 20054 ft | 317 kts | 279° |
| 2026-04-19 04:06 | 51.42946 | -112.51701 | 20054 ft | 318 kts | 279° |
| 2026-04-19 04:06 | 51.43179 | -112.55233 | 20051 ft | 318 kts | 279° |
| 2026-04-19 04:06 | 51.43409 | -112.58762 | 20052 ft | 318 kts | 279° |
| 2026-04-19 04:06 | 51.43638 | -112.62293 | 20050 ft | 318 kts | 279° |
| 2026-04-19 04:07 | 51.43866 | -112.65833 | 20054 ft | 318 kts | 279° |
| 2026-04-19 04:07 | 51.44096 | -112.69419 | 20049 ft | 318 kts | 279° |
| 2026-04-19 04:07 | 51.44321 | -112.72940 | 20047 ft | 318 kts | 279° |
| 2026-04-19 04:07 | 51.44547 | -112.76487 | 20048 ft | 318 kts | 279° |
| 2026-04-19 04:08 | 51.44772 | -112.80031 | 20049 ft | 318 kts | 279° |
| 2026-04-19 04:08 | 51.44999 | -112.83611 | 20051 ft | 318 kts | 279° |
| 2026-04-19 04:08 | 51.45223 | -112.87174 | 19892 ft | 322 kts | 278° |
| 2026-04-19 04:08 | 51.45441 | -112.90717 | 19577 ft | 311 kts | 278° |
| 2026-04-19 04:09 | 51.45645 | -112.94141 | 19250 ft | 302 kts | 278° |
| 2026-04-19 04:09 | 51.45845 | -112.97461 | 18919 ft | 295 kts | 278° |
| 2026-04-19 04:09 | 51.46041 | -113.00645 | 18605 ft | 294 kts | 278° |
| 2026-04-19 04:09 | 51.46241 | -113.03887 | 18288 ft | 292 kts | 278° |
| 2026-04-19 04:10 | 51.46441 | -113.07161 | 17957 ft | 291 kts | 278° |
| 2026-04-19 04:10 | 51.46640 | -113.10408 | 17618 ft | 292 kts | 278° |
| 2026-04-19 04:10 | 51.46840 | -113.13670 | 17273 ft | 292 kts | 278° |
| 2026-04-19 04:10 | 51.47033 | -113.16881 | 16943 ft | 292 kts | 278° |
| 2026-04-19 04:11 | 51.47230 | -113.20161 | 16608 ft | 292 kts | 278° |
| 2026-04-19 04:11 | 51.47422 | -113.23425 | 16251 ft | 291 kts | 277° |
| 2026-04-19 04:11 | 51.47202 | -113.26656 | 15818 ft | 293 kts | 253° |
| 2026-04-19 04:11 | 51.46134 | -113.29364 | 15439 ft | 294 kts | 235° |
| 2026-04-19 04:12 | 51.44815 | -113.31911 | 14969 ft | 295 kts | 233° |
| 2026-04-19 04:12 | 51.43481 | -113.34454 | 14500 ft | 296 kts | 233° |
| 2026-04-19 04:12 | 51.42174 | -113.36945 | 14041 ft | 295 kts | 233° |
| 2026-04-19 04:12 | 51.40820 | -113.39526 | 13567 ft | 295 kts | 233° |
| 2026-04-19 04:13 | 51.39518 | -113.42015 | 13109 ft | 294 kts | 233° |
| 2026-04-19 04:13 | 51.38210 | -113.44518 | 12644 ft | 293 kts | 233° |
| 2026-04-19 04:13 | 51.36887 | -113.47050 | 12178 ft | 292 kts | 232° |
| 2026-04-19 04:13 | 51.35560 | -113.49586 | 11710 ft | 291 kts | 232° |
| 2026-04-19 04:14 | 51.34269 | -113.52056 | 11258 ft | 289 kts | 233° |
| 2026-04-19 04:14 | 51.32977 | -113.54527 | 10800 ft | 288 kts | 232° |
| 2026-04-19 04:14 | 51.31683 | -113.57000 | 10344 ft | 287 kts | 232° |
| 2026-04-19 04:14 | 51.30397 | -113.59455 | 9893 ft | 285 kts | 232° |
| 2026-04-19 04:15 | 51.29119 | -113.61942 | 9439 ft | 284 kts | 235° |
| 2026-04-19 04:15 | 51.28394 | -113.64808 | 9088 ft | 276 kts | 266° |
| 2026-04-19 04:15 | 51.28721 | -113.67703 | 9020 ft | 261 kts | 289° |
| 2026-04-19 04:15 | 51.29379 | -113.70407 | 8992 ft | 259 kts | 291° |
| 2026-04-19 04:16 | 51.30046 | -113.73135 | 8980 ft | 257 kts | 291° |
| 2026-04-19 04:16 | 51.30706 | -113.75803 | 8977 ft | 255 kts | 291° |
| 2026-04-19 04:16 | 51.31361 | -113.78432 | 8971 ft | 252 kts | 291° |
| 2026-04-19 04:16 | 51.31998 | -113.80975 | 8968 ft | 248 kts | 291° |
| 2026-04-19 04:17 | 51.32886 | -113.83334 | 8902 ft | 248 kts | 316° |
| 2026-04-19 04:17 | 51.34472 | -113.84500 | 8670 ft | 255 kts | 351° |
| 2026-04-19 04:17 | 51.36254 | -113.84606 | 8450 ft | 261 kts | 359° |
| 2026-04-19 04:17 | 51.38086 | -113.84604 | 8188 ft | 256 kts | 359° |
| 2026-04-19 04:18 | 51.39887 | -113.84602 | 7927 ft | 255 kts | 359° |
| 2026-04-19 04:18 | 51.41693 | -113.84598 | 7675 ft | 258 kts | 359° |
| 2026-04-19 04:18 | 51.43500 | -113.84593 | 7426 ft | 260 kts | 359° |
| 2026-04-19 04:18 | 51.45361 | -113.84589 | 7172 ft | 263 kts | 359° |
| 2026-04-19 04:19 | 51.47194 | -113.84755 | 6911 ft | 265 kts | 347° |
| 2026-04-19 04:19 | 51.48809 | -113.85996 | 6658 ft | 249 kts | 318° |
| 2026-04-19 04:19 | 51.49765 | -113.88204 | 6518 ft | 233 kts | 287° |
| 2026-04-19 04:19 | 51.49862 | -113.90749 | 6484 ft | 228 kts | 256° |
| 2026-04-19 04:20 | 51.49128 | -113.92968 | 6468 ft | 222 kts | 225° |
| 2026-04-19 04:20 | 51.47829 | -113.94213 | 6474 ft | 219 kts | 198° |
| 2026-04-19 04:20 | 51.46355 | -113.94878 | 6469 ft | 220 kts | 195° |
| 2026-04-19 04:20 | 51.44852 | -113.95528 | 6465 ft | 221 kts | 195° |
| 2026-04-19 04:21 | 51.43365 | -113.96167 | 6466 ft | 222 kts | 195° |
| 2026-04-19 04:21 | 51.41860 | -113.96807 | 6469 ft | 222 kts | 195° |
| 2026-04-19 04:21 | 51.40353 | -113.97452 | 6467 ft | 221 kts | 195° |
| 2026-04-19 04:21 | 51.38862 | -113.98035 | 6464 ft | 221 kts | 190° |
| 2026-04-19 04:22 | 51.37329 | -113.98357 | 6467 ft | 221 kts | 187° |
| 2026-04-19 04:22 | 51.35772 | -113.98657 | 6470 ft | 221 kts | 187° |
| 2026-04-19 04:22 | 51.34287 | -113.98953 | 6505 ft | 211 kts | 187° |
| 2026-04-19 04:22 | 51.32822 | -113.99069 | 6476 ft | 204 kts | 178° |
| 2026-04-19 04:23 | 51.31437 | -113.98998 | 6463 ft | 193 kts | 181° |
| 2026-04-19 04:23 | 51.30081 | -113.99041 | 6476 ft | 196 kts | 181° |
| 2026-04-19 04:23 | 51.28713 | -113.99023 | 6417 ft | 190 kts | 180° |
| 2026-04-19 04:23 | 51.27420 | -113.99021 | 6185 ft | 185 kts | 180° |
| 2026-04-19 04:24 | 51.26129 | -113.99020 | 5864 ft | 180 kts | 180° |
| 2026-04-19 04:24 | 51.24923 | -113.99017 | 5576 ft | 167 kts | 180° |
| 2026-04-19 04:24 | 51.23794 | -113.99022 | 5452 ft | 162 kts | 180° |
| 2026-04-19 04:24 | 51.22638 | -113.99039 | 5203 ft | 166 kts | 180° |
| 2026-04-19 04:25 | 51.21476 | -113.99041 | 4969 ft | 168 kts | 180° |
| 2026-04-19 04:25 | 51.20320 | -113.99040 | 4715 ft | 163 kts | 179° |
| 2026-04-19 04:25 | 51.19208 | -113.99033 | 4490 ft | 157 kts | 180° |
| 2026-04-19 04:25 | 51.18105 | -113.99040 | 4282 ft | 157 kts | 179° |
| 2026-04-19 04:26 | 51.17015 | -113.99052 | 4070 ft | 155 kts | 180° |
| 2026-04-19 04:26 | 51.15948 | -113.99037 | 3885 ft | 153 kts | 179° |
| 2026-04-19 04:26 | 51.14885 | -113.99033 | 3669 ft | 150 kts | 180° |
| 2026-04-19 04:26 | 51.13931 | -113.99038 | 3596 ft | 129 kts | 177° |
| 2026-04-19 04:27 | 51.13303 | -113.99035 | 3583 ft | 36 kts | 181° |
| 2026-04-19 04:27 | 51.13156 | -113.99036 | 3581 ft | 28 kts | 179° |
| 2026-04-19 04:27 | 51.12988 | -113.99041 | 3580 ft | 23 kts | 187° |
| 2026-04-19 04:27 | 51.12854 | -113.99108 | 3579 ft | 24 kts | 208° |
| 2026-04-19 04:28 | 51.12759 | -113.99199 | 3579 ft | 14 kts | 212° |
| 2026-04-19 04:28 | 51.12705 | -113.99275 | 3579 ft | 6 kts | 253° |
| 2026-04-19 04:28 | 51.12701 | -113.99416 | 3579 ft | 17 kts | 268° |
| 2026-04-19 04:28 | 51.12699 | -113.99593 | 3577 ft | 14 kts | 270° |
| 2026-04-19 04:29 | 51.12701 | -113.99766 | 3577 ft | 17 kts | 270° |
| 2026-04-19 04:29 | 51.12703 | -113.99985 | 3574 ft | 19 kts | 271° |
| 2026-04-19 04:29 | 51.12702 | -114.00186 | 3567 ft | 22 kts | 271° |
| 2026-04-19 04:29 | 51.12703 | -114.00323 | 3567 ft | 0 kts | 269° |
| 2026-04-19 04:30 | 51.12702 | -114.00437 | 3566 ft | 9 kts | 268° |
| 2026-04-19 04:30 | 51.12711 | -114.00654 | 3565 ft | 26 kts | 276° |
| 2026-04-19 04:30 | 51.12719 | -114.00805 | 3563 ft | 4 kts | 305° |
| 2026-04-19 04:30 | 51.12761 | -114.00820 | 3564 ft | 11 kts | 357° |
| 2026-04-19 04:31 | 51.12805 | -114.00824 | 3566 ft | 7 kts | 355° |
| 2026-04-19 04:31 | 51.12814 | -114.00825 | 3566 ft | 0 kts | 356° |